sensor_id;sensor_type;location;lat;lon;timestamp;P1;durP1;ratioP1;P2;durP2;ratioP2
36185;SDS011;22228;53.222;7.446;2023-02-07T00:00:59;37.90;;;21.87;;
36185;SDS011;22228;53.222;7.446;2023-02-07T00:03:19;35.73;;;21.23;;
36185;SDS011;22228;53.222;7.446;2023-02-07T00:05:41;44.30;;;22.43;;
36185;SDS011;22228;53.222;7.446;2023-02-07T00:08:02;41.37;;;23.10;;
36185;SDS011;22228;53.222;7.446;2023-02-07T00:10:23;45.03;;;23.93;;
36185;SDS011;22228;53.222;7.446;2023-02-07T00:12:44;41.53;;;24.10;;
36185;SDS011;22228;53.222;7.446;2023-02-07T00:15:04;41.90;;;23.50;;
36185;SDS011;22228;53.222;7.446;2023-02-07T00:17:27;44.10;;;24.07;;
36185;SDS011;22228;53.222;7.446;2023-02-07T00:19:48;42.00;;;24.43;;
36185;SDS011;22228;53.222;7.446;2023-02-07T00:22:10;44.97;;;23.67;;
36185;SDS011;22228;53.222;7.446;2023-02-07T00:24:30;47.93;;;24.63;;
36185;SDS011;22228;53.222;7.446;2023-02-07T00:26:51;55.33;;;25.53;;
36185;SDS011;22228;53.222;7.446;2023-02-07T00:29:11;44.40;;;24.33;;
36185;SDS011;22228;53.222;7.446;2023-02-07T00:31:33;47.03;;;23.47;;
36185;SDS011;22228;53.222;7.446;2023-02-07T00:33:55;49.03;;;26.33;;
36185;SDS011;22228;53.222;7.446;2023-02-07T00:36:19;50.13;;;25.03;;
36185;SDS011;22228;53.222;7.446;2023-02-07T00:38:42;37.93;;;23.27;;
36185;SDS011;22228;53.222;7.446;2023-02-07T00:41:03;39.10;;;23.30;;
36185;SDS011;22228;53.222;7.446;2023-02-07T00:43:24;45.43;;;25.43;;
36185;SDS011;22228;53.222;7.446;2023-02-07T00:45:45;45.83;;;23.07;;
36185;SDS011;22228;53.222;7.446;2023-02-07T00:48:05;43.33;;;22.90;;
36185;SDS011;22228;53.222;7.446;2023-02-07T00:50:25;39.90;;;23.87;;
36185;SDS011;22228;53.222;7.446;2023-02-07T00:52:46;42.43;;;23.13;;
36185;SDS011;22228;53.222;7.446;2023-02-07T00:55:08;38.07;;;22.40;;
36185;SDS011;22228;53.222;7.446;2023-02-07T00:57:28;39.20;;;22.97;;
36185;SDS011;22228;53.222;7.446;2023-02-07T00:59:49;46.10;;;23.27;;
36185;SDS011;22228;53.222;7.446;2023-02-07T01:02:09;38.03;;;23.03;;
36185;SDS011;22228;53.222;7.446;2023-02-07T01:04:30;43.27;;;21.93;;
36185;SDS011;22228;53.222;7.446;2023-02-07T01:06:50;43.07;;;22.67;;
36185;SDS011;22228;53.222;7.446;2023-02-07T01:09:11;38.50;;;22.60;;
36185;SDS011;22228;53.222;7.446;2023-02-07T01:11:33;36.53;;;22.03;;
36185;SDS011;22228;53.222;7.446;2023-02-07T01:13:53;38.83;;;22.03;;
36185;SDS011;22228;53.222;7.446;2023-02-07T04:02:14;53.97;;;31.83;;
36185;SDS011;22228;53.222;7.446;2023-02-07T04:04:34;45.43;;;27.00;;
36185;SDS011;22228;53.222;7.446;2023-02-07T04:06:55;48.57;;;28.27;;
36185;SDS011;22228;53.222;7.446;2023-02-07T04:09:17;47.13;;;28.07;;
36185;SDS011;22228;53.222;7.446;2023-02-07T04:11:37;52.77;;;29.30;;
36185;SDS011;22228;53.222;7.446;2023-02-07T04:13:58;47.47;;;28.57;;
36185;SDS011;22228;53.222;7.446;2023-02-07T04:16:19;52.47;;;26.67;;
36185;SDS011;22228;53.222;7.446;2023-02-07T04:18:40;48.27;;;27.37;;
36185;SDS011;22228;53.222;7.446;2023-02-07T04:21:01;44.40;;;26.63;;
36185;SDS011;22228;53.222;7.446;2023-02-07T04:23:22;49.30;;;26.70;;
36185;SDS011;22228;53.222;7.446;2023-02-07T04:25:42;56.13;;;27.97;;
36185;SDS011;22228;53.222;7.446;2023-02-07T04:28:06;45.57;;;26.73;;
36185;SDS011;22228;53.222;7.446;2023-02-07T04:30:26;39.43;;;26.07;;
36185;SDS011;22228;53.222;7.446;2023-02-07T04:32:47;40.57;;;25.10;;
36185;SDS011;22228;53.222;7.446;2023-02-07T04:35:09;46.67;;;26.77;;
36185;SDS011;22228;53.222;7.446;2023-02-07T04:37:30;41.13;;;25.70;;
36185;SDS011;22228;53.222;7.446;2023-02-07T04:39:51;46.93;;;27.13;;
36185;SDS011;22228;53.222;7.446;2023-02-07T04:42:11;47.00;;;27.03;;
36185;SDS011;22228;53.222;7.446;2023-02-07T04:44:32;45.97;;;26.30;;
36185;SDS011;22228;53.222;7.446;2023-02-07T04:46:52;50.40;;;27.50;;
36185;SDS011;22228;53.222;7.446;2023-02-07T04:49:13;48.63;;;28.83;;
36185;SDS011;22228;53.222;7.446;2023-02-07T04:51:35;43.97;;;27.90;;
36185;SDS011;22228;53.222;7.446;2023-02-07T04:53:55;44.37;;;28.53;;
36185;SDS011;22228;53.222;7.446;2023-02-07T04:56:16;46.17;;;28.33;;
36185;SDS011;22228;53.222;7.446;2023-02-07T04:58:36;46.70;;;28.80;;
36185;SDS011;22228;53.222;7.446;2023-02-07T05:00:57;46.20;;;27.47;;
36185;SDS011;22228;53.222;7.446;2023-02-07T05:03:18;45.67;;;27.80;;
36185;SDS011;22228;53.222;7.446;2023-02-07T05:05:38;45.03;;;28.73;;
36185;SDS011;22228;53.222;7.446;2023-02-07T05:08:01;52.87;;;28.37;;
36185;SDS011;22228;53.222;7.446;2023-02-07T05:10:21;46.77;;;29.20;;
36185;SDS011;22228;53.222;7.446;2023-02-07T05:12:41;45.60;;;28.00;;
36185;SDS011;22228;53.222;7.446;2023-02-07T05:15:02;46.17;;;28.33;;
36185;SDS011;22228;53.222;7.446;2023-02-07T05:17:23;52.63;;;28.17;;
36185;SDS011;22228;53.222;7.446;2023-02-07T05:19:43;44.07;;;26.63;;
36185;SDS011;22228;53.222;7.446;2023-02-07T05:22:03;43.43;;;26.47;;
36185;SDS011;22228;53.222;7.446;2023-02-07T05:24:25;43.40;;;25.67;;
36185;SDS011;22228;53.222;7.446;2023-02-07T05:26:45;42.43;;;25.63;;
36185;SDS011;22228;53.222;7.446;2023-02-07T05:29:06;38.27;;;24.37;;
36185;SDS011;22228;53.222;7.446;2023-02-07T05:31:26;47.83;;;25.67;;
36185;SDS011;22228;53.222;7.446;2023-02-07T05:34:01;48.13;;;26.77;;
36185;SDS011;22228;53.222;7.446;2023-02-07T05:36:21;43.70;;;25.60;;
36185;SDS011;22228;53.222;7.446;2023-02-07T05:38:42;44.90;;;26.23;;
36185;SDS011;22228;53.222;7.446;2023-02-07T05:41:03;44.20;;;24.40;;
36185;SDS011;22228;53.222;7.446;2023-02-07T05:43:24;50.20;;;27.00;;
36185;SDS011;22228;53.222;7.446;2023-02-07T05:45:44;45.50;;;27.20;;
36185;SDS011;22228;53.222;7.446;2023-02-07T05:48:05;42.53;;;26.27;;
36185;SDS011;22228;53.222;7.446;2023-02-07T05:50:26;42.13;;;25.13;;
36185;SDS011;22228;53.222;7.446;2023-02-07T05:52:56;41.67;;;25.13;;
36185;SDS011;22228;53.222;7.446;2023-02-07T05:55:17;40.47;;;23.63;;
36185;SDS011;22228;53.222;7.446;2023-02-07T05:57:39;39.50;;;24.97;;
36185;SDS011;22228;53.222;7.446;2023-02-07T06:00:00;45.13;;;25.63;;
36185;SDS011;22228;53.222;7.446;2023-02-07T06:02:30;40.03;;;23.63;;
36185;SDS011;22228;53.222;7.446;2023-02-07T06:04:51;38.13;;;25.47;;
36185;SDS011;22228;53.222;7.446;2023-02-07T06:07:11;42.67;;;25.97;;
36185;SDS011;22228;53.222;7.446;2023-02-07T06:09:32;39.10;;;26.57;;
36185;SDS011;22228;53.222;7.446;2023-02-07T06:11:52;39.67;;;25.10;;
36185;SDS011;22228;53.222;7.446;2023-02-07T06:14:15;44.50;;;28.80;;
36185;SDS011;22228;53.222;7.446;2023-02-07T06:16:35;52.23;;;29.83;;
36185;SDS011;22228;53.222;7.446;2023-02-07T06:18:56;49.33;;;27.77;;
36185;SDS011;22228;53.222;7.446;2023-02-07T06:21:17;47.43;;;28.90;;
36185;SDS011;22228;53.222;7.446;2023-02-07T06:23:37;46.57;;;28.90;;
36185;SDS011;22228;53.222;7.446;2023-02-07T06:25:58;47.83;;;28.00;;
36185;SDS011;22228;53.222;7.446;2023-02-07T06:28:18;50.43;;;28.97;;
36185;SDS011;22228;53.222;7.446;2023-02-07T06:30:40;52.13;;;29.90;;
36185;SDS011;22228;53.222;7.446;2023-02-07T06:33:01;51.67;;;30.00;;
36185;SDS011;22228;53.222;7.446;2023-02-07T06:35:22;55.37;;;32.23;;
36185;SDS011;22228;53.222;7.446;2023-02-07T06:37:42;60.83;;;32.03;;
36185;SDS011;22228;53.222;7.446;2023-02-07T06:40:03;56.43;;;32.23;;
36185;SDS011;22228;53.222;7.446;2023-02-07T06:42:24;58.93;;;31.63;;
36185;SDS011;22228;53.222;7.446;2023-02-07T06:44:45;56.83;;;31.17;;
36185;SDS011;22228;53.222;7.446;2023-02-07T06:47:07;55.00;;;31.37;;
36185;SDS011;22228;53.222;7.446;2023-02-07T06:49:27;59.07;;;31.80;;
36185;SDS011;22228;53.222;7.446;2023-02-07T06:51:48;58.63;;;33.07;;
36185;SDS011;22228;53.222;7.446;2023-02-07T06:54:08;55.97;;;31.93;;
36185;SDS011;22228;53.222;7.446;2023-02-07T06:56:29;49.67;;;29.37;;
36185;SDS011;22228;53.222;7.446;2023-02-07T06:58:49;61.20;;;32.27;;
36185;SDS011;22228;53.222;7.446;2023-02-07T07:01:10;58.87;;;30.80;;
36185;SDS011;22228;53.222;7.446;2023-02-07T07:03:32;57.40;;;34.93;;
36185;SDS011;22228;53.222;7.446;2023-02-07T07:05:52;56.97;;;33.80;;
36185;SDS011;22228;53.222;7.446;2023-02-07T07:08:13;57.40;;;31.97;;
36185;SDS011;22228;53.222;7.446;2023-02-07T07:10:35;51.40;;;31.53;;
36185;SDS011;22228;53.222;7.446;2023-02-07T07:12:56;56.10;;;31.50;;
36185;SDS011;22228;53.222;7.446;2023-02-07T07:15:17;55.63;;;32.07;;
36185;SDS011;22228;53.222;7.446;2023-02-07T07:17:37;53.17;;;31.40;;
36185;SDS011;22228;53.222;7.446;2023-02-07T07:19:59;55.63;;;32.70;;
36185;SDS011;22228;53.222;7.446;2023-02-07T07:22:19;50.20;;;30.13;;
36185;SDS011;22228;53.222;7.446;2023-02-07T07:24:40;51.77;;;31.23;;
36185;SDS011;22228;53.222;7.446;2023-02-07T07:27:00;51.97;;;32.63;;
36185;SDS011;22228;53.222;7.446;2023-02-07T07:29:21;61.77;;;33.83;;
36185;SDS011;22228;53.222;7.446;2023-02-07T07:31:41;57.70;;;33.17;;
36185;SDS011;22228;53.222;7.446;2023-02-07T07:34:02;56.93;;;33.10;;
36185;SDS011;22228;53.222;7.446;2023-02-07T07:36:24;59.27;;;32.27;;
36185;SDS011;22228;53.222;7.446;2023-02-07T07:38:44;62.70;;;32.93;;
36185;SDS011;22228;53.222;7.446;2023-02-07T07:41:05;60.73;;;34.40;;
36185;SDS011;22228;53.222;7.446;2023-02-07T07:43:25;63.07;;;34.07;;
36185;SDS011;22228;53.222;7.446;2023-02-07T07:45:50;62.77;;;34.30;;
36185;SDS011;22228;53.222;7.446;2023-02-07T07:48:11;58.30;;;33.97;;
36185;SDS011;22228;53.222;7.446;2023-02-07T07:50:31;56.93;;;33.30;;
36185;SDS011;22228;53.222;7.446;2023-02-07T07:52:53;58.50;;;33.40;;
36185;SDS011;22228;53.222;7.446;2023-02-07T07:55:13;56.17;;;33.07;;
36185;SDS011;22228;53.222;7.446;2023-02-07T07:57:34;55.80;;;33.17;;
36185;SDS011;22228;53.222;7.446;2023-02-07T08:02:44;60.43;;;32.87;;
36185;SDS011;22228;53.222;7.446;2023-02-07T08:05:05;58.87;;;33.87;;
36185;SDS011;22228;53.222;7.446;2023-02-07T08:07:25;61.23;;;33.70;;
36185;SDS011;22228;53.222;7.446;2023-02-07T08:09:47;56.07;;;32.47;;
36185;SDS011;22228;53.222;7.446;2023-02-07T08:12:07;62.80;;;33.23;;
36185;SDS011;22228;53.222;7.446;2023-02-07T08:14:28;54.63;;;31.80;;
36185;SDS011;22228;53.222;7.446;2023-02-07T08:16:48;55.80;;;31.93;;
36185;SDS011;22228;53.222;7.446;2023-02-07T08:19:09;55.33;;;33.20;;
36185;SDS011;22228;53.222;7.446;2023-02-07T08:21:29;53.87;;;32.33;;
36185;SDS011;22228;53.222;7.446;2023-02-07T08:23:49;54.23;;;31.77;;
36185;SDS011;22228;53.222;7.446;2023-02-07T08:26:11;56.97;;;32.37;;
36185;SDS011;22228;53.222;7.446;2023-02-07T08:28:32;62.17;;;33.93;;
36185;SDS011;22228;53.222;7.446;2023-02-07T08:30:53;60.50;;;34.50;;
36185;SDS011;22228;53.222;7.446;2023-02-07T08:33:13;66.83;;;35.47;;
36185;SDS011;22228;53.222;7.446;2023-02-07T08:35:35;57.70;;;35.23;;
36185;SDS011;22228;53.222;7.446;2023-02-07T08:37:55;59.27;;;34.83;;
36185;SDS011;22228;53.222;7.446;2023-02-07T08:40:16;61.83;;;36.87;;
36185;SDS011;22228;53.222;7.446;2023-02-07T08:42:38;61.50;;;36.40;;
36185;SDS011;22228;53.222;7.446;2023-02-07T08:44:58;62.83;;;36.60;;
36185;SDS011;22228;53.222;7.446;2023-02-07T08:47:19;65.17;;;36.27;;
36185;SDS011;22228;53.222;7.446;2023-02-07T08:49:39;61.87;;;36.10;;
36185;SDS011;22228;53.222;7.446;2023-02-07T08:51:59;61.53;;;36.13;;
36185;SDS011;22228;53.222;7.446;2023-02-07T08:54:20;64.83;;;35.67;;
36185;SDS011;22228;53.222;7.446;2023-02-07T08:56:40;59.43;;;37.80;;
36185;SDS011;22228;53.222;7.446;2023-02-07T08:59:02;62.83;;;38.33;;
36185;SDS011;22228;53.222;7.446;2023-02-07T09:01:23;64.90;;;36.77;;
36185;SDS011;22228;53.222;7.446;2023-02-07T09:03:44;59.60;;;37.07;;
36185;SDS011;22228;53.222;7.446;2023-02-07T09:06:05;58.67;;;33.83;;
36185;SDS011;22228;53.222;7.446;2023-02-07T09:08:25;56.20;;;34.93;;
36185;SDS011;22228;53.222;7.446;2023-02-07T09:10:46;54.23;;;32.23;;
36185;SDS011;22228;53.222;7.446;2023-02-07T09:13:07;55.30;;;33.03;;
36185;SDS011;22228;53.222;7.446;2023-02-07T09:15:28;46.33;;;30.97;;
36185;SDS011;22228;53.222;7.446;2023-02-07T09:17:49;53.07;;;31.00;;
36185;SDS011;22228;53.222;7.446;2023-02-07T09:20:10;49.60;;;30.03;;
36185;SDS011;22228;53.222;7.446;2023-02-07T09:22:30;45.47;;;29.00;;
36185;SDS011;22228;53.222;7.446;2023-02-07T09:25:11;45.63;;;28.33;;
36185;SDS011;22228;53.222;7.446;2023-02-07T09:27:32;47.80;;;28.63;;
36185;SDS011;22228;53.222;7.446;2023-02-07T09:29:52;44.97;;;29.83;;
36185;SDS011;22228;53.222;7.446;2023-02-07T09:32:14;45.83;;;29.33;;
36185;SDS011;22228;53.222;7.446;2023-02-07T09:34:34;43.63;;;27.73;;
36185;SDS011;22228;53.222;7.446;2023-02-07T09:36:55;34.93;;;25.47;;
36185;SDS011;22228;53.222;7.446;2023-02-07T09:39:16;43.40;;;27.57;;
36185;SDS011;22228;53.222;7.446;2023-02-07T09:41:38;39.33;;;26.90;;
36185;SDS011;22228;53.222;7.446;2023-02-07T09:44:08;39.63;;;26.33;;
36185;SDS011;22228;53.222;7.446;2023-02-07T09:46:34;38.57;;;25.40;;
36185;SDS011;22228;53.222;7.446;2023-02-07T09:48:59;32.87;;;24.23;;
36185;SDS011;22228;53.222;7.446;2023-02-07T09:51:24;33.13;;;22.73;;
36185;SDS011;22228;53.222;7.446;2023-02-07T09:53:46;32.83;;;21.60;;
36185;SDS011;22228;53.222;7.446;2023-02-07T09:56:13;32.90;;;21.53;;
36185;SDS011;22228;53.222;7.446;2023-02-07T09:58:39;29.20;;;21.37;;
36185;SDS011;22228;53.222;7.446;2023-02-07T10:01:03;30.07;;;21.80;;
36185;SDS011;22228;53.222;7.446;2023-02-07T10:03:30;30.67;;;21.57;;
36185;SDS011;22228;53.222;7.446;2023-02-07T10:05:57;27.40;;;20.23;;
36185;SDS011;22228;53.222;7.446;2023-02-07T10:08:20;28.27;;;19.80;;
36185;SDS011;22228;53.222;7.446;2023-02-07T10:10:41;26.27;;;20.20;;
36185;SDS011;22228;53.222;7.446;2023-02-07T10:13:17;26.67;;;19.67;;
36185;SDS011;22228;53.222;7.446;2023-02-07T10:15:51;24.03;;;17.10;;
36185;SDS011;22228;53.222;7.446;2023-02-07T10:18:27;22.10;;;17.77;;
36185;SDS011;22228;53.222;7.446;2023-02-07T10:21:00;27.97;;;17.67;;
36185;SDS011;22228;53.222;7.446;2023-02-07T10:23:28;23.60;;;17.27;;
36185;SDS011;22228;53.222;7.446;2023-02-07T10:26:11;21.83;;;16.67;;
36185;SDS011;22228;53.222;7.446;2023-02-07T10:31:36;21.90;;;17.07;;
36185;SDS011;22228;53.222;7.446;2023-02-07T10:33:59;21.43;;;15.93;;
36185;SDS011;22228;53.222;7.446;2023-02-07T10:36:24;22.00;;;16.60;;
36185;SDS011;22228;53.222;7.446;2023-02-07T10:38:48;19.70;;;16.53;;
36185;SDS011;22228;53.222;7.446;2023-02-07T10:41:16;20.73;;;15.87;;
36185;SDS011;22228;53.222;7.446;2023-02-07T10:43:53;19.33;;;16.03;;
36185;SDS011;22228;53.222;7.446;2023-02-07T10:46:18;19.93;;;15.20;;
36185;SDS011;22228;53.222;7.446;2023-02-07T10:48:41;22.00;;;15.87;;
36185;SDS011;22228;53.222;7.446;2023-02-07T10:51:02;17.97;;;14.43;;
36185;SDS011;22228;53.222;7.446;2023-02-07T10:56:12;15.17;;;12.30;;
36185;SDS011;22228;53.222;7.446;2023-02-07T10:58:37;16.17;;;12.40;;
36185;SDS011;22228;53.222;7.446;2023-02-07T11:00:58;17.20;;;12.40;;
36185;SDS011;22228;53.222;7.446;2023-02-07T11:03:19;14.60;;;12.40;;
36185;SDS011;22228;53.222;7.446;2023-02-07T11:05:51;16.63;;;12.23;;
36185;SDS011;22228;53.222;7.446;2023-02-07T11:08:17;14.43;;;11.27;;
36185;SDS011;22228;53.222;7.446;2023-02-07T11:10:43;13.60;;;10.93;;
36185;SDS011;22228;53.222;7.446;2023-02-07T11:13:10;13.63;;;11.40;;
36185;SDS011;22228;53.222;7.446;2023-02-07T11:15:37;12.57;;;11.27;;
36185;SDS011;22228;53.222;7.446;2023-02-07T11:18:04;14.00;;;12.53;;
36185;SDS011;22228;53.222;7.446;2023-02-07T11:20:26;13.00;;;11.43;;
36185;SDS011;22228;53.222;7.446;2023-02-07T11:22:49;13.37;;;10.80;;
36185;SDS011;22228;53.222;7.446;2023-02-07T11:25:11;15.60;;;11.10;;
36185;SDS011;22228;53.222;7.446;2023-02-07T11:27:36;15.03;;;12.10;;
36185;SDS011;22228;53.222;7.446;2023-02-07T11:30:03;13.07;;;11.17;;
36185;SDS011;22228;53.222;7.446;2023-02-07T11:32:26;14.40;;;11.57;;
36185;SDS011;22228;53.222;7.446;2023-02-07T11:34:48;12.67;;;10.40;;
36185;SDS011;22228;53.222;7.446;2023-02-07T11:37:27;12.70;;;10.97;;
36185;SDS011;22228;53.222;7.446;2023-02-07T11:39:52;12.63;;;11.33;;
36185;SDS011;22228;53.222;7.446;2023-02-07T11:42:17;12.10;;;10.37;;
36185;SDS011;22228;53.222;7.446;2023-02-07T11:44:41;13.33;;;10.83;;
36185;SDS011;22228;53.222;7.446;2023-02-07T11:47:04;12.73;;;10.97;;
36185;SDS011;22228;53.222;7.446;2023-02-07T11:49:26;14.50;;;12.07;;
36185;SDS011;22228;53.222;7.446;2023-02-07T11:51:51;11.83;;;10.57;;
36185;SDS011;22228;53.222;7.446;2023-02-07T11:54:14;12.83;;;10.27;;
36185;SDS011;22228;53.222;7.446;2023-02-07T11:56:36;12.10;;;10.10;;
36185;SDS011;22228;53.222;7.446;2023-02-07T11:58:58;13.03;;;10.53;;
36185;SDS011;22228;53.222;7.446;2023-02-07T12:01:25;12.07;;;10.43;;
36185;SDS011;22228;53.222;7.446;2023-02-07T12:03:49;12.43;;;10.83;;
36185;SDS011;22228;53.222;7.446;2023-02-07T12:06:17;11.37;;;9.97;;
36185;SDS011;22228;53.222;7.446;2023-02-07T12:08:40;10.57;;;9.37;;
36185;SDS011;22228;53.222;7.446;2023-02-07T12:11:03;10.53;;;9.43;;
36185;SDS011;22228;53.222;7.446;2023-02-07T12:13:31;11.57;;;9.30;;
36185;SDS011;22228;53.222;7.446;2023-02-07T12:15:57;12.73;;;8.93;;
36185;SDS011;22228;53.222;7.446;2023-02-07T12:18:24;8.90;;;8.03;;
36185;SDS011;22228;53.222;7.446;2023-02-07T12:20:51;8.83;;;7.50;;
36185;SDS011;22228;53.222;7.446;2023-02-07T12:23:17;9.50;;;8.60;;
36185;SDS011;22228;53.222;7.446;2023-02-07T12:25:44;9.27;;;8.33;;
36185;SDS011;22228;53.222;7.446;2023-02-07T12:28:12;8.00;;;7.20;;
36185;SDS011;22228;53.222;7.446;2023-02-07T12:30:44;8.27;;;7.27;;
36185;SDS011;22228;53.222;7.446;2023-02-07T12:33:11;8.53;;;7.67;;
36185;SDS011;22228;53.222;7.446;2023-02-07T12:35:40;9.17;;;7.77;;
36185;SDS011;22228;53.222;7.446;2023-02-07T12:38:10;9.50;;;8.60;;
36185;SDS011;22228;53.222;7.446;2023-02-07T12:40:36;8.17;;;7.33;;
36185;SDS011;22228;53.222;7.446;2023-02-07T12:43:01;8.10;;;7.33;;
36185;SDS011;22228;53.222;7.446;2023-02-07T12:45:31;10.27;;;8.07;;
36185;SDS011;22228;53.222;7.446;2023-02-07T12:48:10;8.53;;;7.73;;
36185;SDS011;22228;53.222;7.446;2023-02-07T12:50:51;9.20;;;8.00;;
36185;SDS011;22228;53.222;7.446;2023-02-07T12:53:25;8.63;;;7.73;;
36185;SDS011;22228;53.222;7.446;2023-02-07T12:55:58;9.20;;;7.87;;
36185;SDS011;22228;53.222;7.446;2023-02-07T12:58:29;9.17;;;8.13;;
36185;SDS011;22228;53.222;7.446;2023-02-07T13:00:57;9.83;;;8.10;;
36185;SDS011;22228;53.222;7.446;2023-02-07T13:03:25;9.10;;;8.20;;
36185;SDS011;22228;53.222;7.446;2023-02-07T13:06:08;9.00;;;8.10;;
36185;SDS011;22228;53.222;7.446;2023-02-07T13:08:39;8.20;;;7.50;;
36185;SDS011;22228;53.222;7.446;2023-02-07T13:11:09;8.33;;;7.63;;
36185;SDS011;22228;53.222;7.446;2023-02-07T13:13:41;9.30;;;7.80;;
36185;SDS011;22228;53.222;7.446;2023-02-07T13:16:15;8.57;;;7.77;;
36185;SDS011;22228;53.222;7.446;2023-02-07T13:18:40;8.30;;;7.60;;
36185;SDS011;22228;53.222;7.446;2023-02-07T13:21:14;8.43;;;7.53;;
36185;SDS011;22228;53.222;7.446;2023-02-07T13:23:42;8.33;;;7.53;;
36185;SDS011;22228;53.222;7.446;2023-02-07T13:26:05;8.30;;;7.50;;
36185;SDS011;22228;53.222;7.446;2023-02-07T13:28:34;9.23;;;7.83;;
36185;SDS011;22228;53.222;7.446;2023-02-07T13:31:01;9.10;;;8.20;;
36185;SDS011;22228;53.222;7.446;2023-02-07T13:33:27;10.13;;;8.03;;
36185;SDS011;22228;53.222;7.446;2023-02-07T13:35:51;8.43;;;7.67;;
36185;SDS011;22228;53.222;7.446;2023-02-07T13:38:27;8.90;;;8.07;;
36185;SDS011;22228;53.222;7.446;2023-02-07T13:41:05;9.57;;;8.30;;
36185;SDS011;22228;53.222;7.446;2023-02-07T13:43:37;8.67;;;7.87;;
36185;SDS011;22228;53.222;7.446;2023-02-07T13:46:06;9.10;;;8.27;;
36185;SDS011;22228;53.222;7.446;2023-02-07T13:48:38;8.43;;;7.47;;
36185;SDS011;22228;53.222;7.446;2023-02-07T13:51:05;8.40;;;7.67;;
36185;SDS011;22228;53.222;7.446;2023-02-07T13:53:40;9.73;;;7.67;;
36185;SDS011;22228;53.222;7.446;2023-02-07T13:56:07;8.30;;;7.53;;
36185;SDS011;22228;53.222;7.446;2023-02-07T13:58:50;8.63;;;7.73;;
36185;SDS011;22228;53.222;7.446;2023-02-07T14:01:29;8.50;;;7.73;;
36185;SDS011;22228;53.222;7.446;2023-02-07T14:03:59;9.10;;;8.20;;
36185;SDS011;22228;53.222;7.446;2023-02-07T14:06:23;9.40;;;8.43;;
36185;SDS011;22228;53.222;7.446;2023-02-07T14:08:47;9.07;;;7.97;;
36185;SDS011;22228;53.222;7.446;2023-02-07T14:11:21;10.03;;;8.73;;
36185;SDS011;22228;53.222;7.446;2023-02-07T14:13:49;10.10;;;9.10;;
36185;SDS011;22228;53.222;7.446;2023-02-07T14:16:41;10.00;;;9.00;;
36185;SDS011;22228;53.222;7.446;2023-02-07T14:19:03;9.03;;;8.13;;
36185;SDS011;22228;53.222;7.446;2023-02-07T14:21:40;10.60;;;9.37;;
36185;SDS011;22228;53.222;7.446;2023-02-07T14:24:29;9.37;;;8.43;;
36185;SDS011;22228;53.222;7.446;2023-02-07T14:26:56;9.20;;;8.30;;
36185;SDS011;22228;53.222;7.446;2023-02-07T14:29:37;9.97;;;8.47;;
36185;SDS011;22228;53.222;7.446;2023-02-07T14:32:27;10.57;;;8.10;;
36185;SDS011;22228;53.222;7.446;2023-02-07T14:34:57;10.00;;;9.00;;
36185;SDS011;22228;53.222;7.446;2023-02-07T14:37:20;12.00;;;10.10;;
36185;SDS011;22228;53.222;7.446;2023-02-07T14:40:02;10.53;;;9.43;;
36185;SDS011;22228;53.222;7.446;2023-02-07T14:42:25;10.00;;;9.00;;
36185;SDS011;22228;53.222;7.446;2023-02-07T14:44:46;10.70;;;9.60;;
36185;SDS011;22228;53.222;7.446;2023-02-07T14:47:15;10.07;;;8.93;;
36185;SDS011;22228;53.222;7.446;2023-02-07T14:49:41;10.20;;;9.10;;
36185;SDS011;22228;53.222;7.446;2023-02-07T14:52:13;13.57;;;9.50;;
36185;SDS011;22228;53.222;7.446;2023-02-07T14:54:42;11.60;;;10.50;;
36185;SDS011;22228;53.222;7.446;2023-02-07T14:57:11;10.87;;;9.77;;
36185;SDS011;22228;53.222;7.446;2023-02-07T14:59:44;14.30;;;12.13;;
36185;SDS011;22228;53.222;7.446;2023-02-07T15:05:14;11.43;;;9.90;;
36185;SDS011;22228;53.222;7.446;2023-02-07T15:07:38;11.97;;;9.40;;
36185;SDS011;22228;53.222;7.446;2023-02-07T15:10:01;11.20;;;10.10;;
36185;SDS011;22228;53.222;7.446;2023-02-07T15:12:35;10.37;;;9.40;;
36185;SDS011;22228;53.222;7.446;2023-02-07T15:14:56;9.70;;;8.73;;
36185;SDS011;22228;53.222;7.446;2023-02-07T15:17:18;10.50;;;9.40;;
36185;SDS011;22228;53.222;7.446;2023-02-07T15:19:40;12.67;;;9.23;;
36185;SDS011;22228;53.222;7.446;2023-02-07T15:22:01;11.67;;;9.30;;
36185;SDS011;22228;53.222;7.446;2023-02-07T15:24:25;10.20;;;8.10;;
36185;SDS011;22228;53.222;7.446;2023-02-07T15:26:52;10.57;;;9.13;;
36185;SDS011;22228;53.222;7.446;2023-02-07T15:30:03;11.20;;;9.37;;
36185;SDS011;22228;53.222;7.446;2023-02-07T15:32:54;10.70;;;9.60;;
36185;SDS011;22228;53.222;7.446;2023-02-07T15:35:16;11.57;;;10.00;;
36185;SDS011;22228;53.222;7.446;2023-02-07T15:37:41;10.00;;;8.87;;
36185;SDS011;22228;53.222;7.446;2023-02-07T15:40:04;13.67;;;10.23;;
36185;SDS011;22228;53.222;7.446;2023-02-07T15:42:25;10.63;;;9.53;;
36185;SDS011;22228;53.222;7.446;2023-02-07T15:44:47;10.80;;;9.73;;
36185;SDS011;22228;53.222;7.446;2023-02-07T15:47:32;12.13;;;10.03;;
36185;SDS011;22228;53.222;7.446;2023-02-07T15:49:56;11.37;;;10.23;;
36185;SDS011;22228;53.222;7.446;2023-02-07T15:58:36;11.03;;;9.93;;
36185;SDS011;22228;53.222;7.446;2023-02-07T16:01:00;11.43;;;9.43;;
36185;SDS011;22228;53.222;7.446;2023-02-07T16:03:25;11.63;;;10.07;;
36185;SDS011;22228;53.222;7.446;2023-02-07T16:05:47;14.60;;;10.10;;
36185;SDS011;22228;53.222;7.446;2023-02-07T16:08:26;12.63;;;10.23;;
36185;SDS011;22228;53.222;7.446;2023-02-07T16:10:49;14.67;;;11.53;;
36185;SDS011;22228;53.222;7.446;2023-02-07T16:13:13;14.87;;;12.80;;
36185;SDS011;22228;53.222;7.446;2023-02-07T16:15:38;14.83;;;12.30;;
36185;SDS011;22228;53.222;7.446;2023-02-07T16:18:15;11.80;;;10.60;;
36185;SDS011;22228;53.222;7.446;2023-02-07T16:20:56;12.70;;;11.33;;
36185;SDS011;22228;53.222;7.446;2023-02-07T16:23:16;13.47;;;11.03;;
36185;SDS011;22228;53.222;7.446;2023-02-07T16:25:38;13.47;;;10.97;;
36185;SDS011;22228;53.222;7.446;2023-02-07T16:27:59;14.37;;;11.10;;
36185;SDS011;22228;53.222;7.446;2023-02-07T16:30:23;15.83;;;11.80;;
36185;SDS011;22228;53.222;7.446;2023-02-07T16:32:46;15.00;;;11.47;;
36185;SDS011;22228;53.222;7.446;2023-02-07T16:35:11;14.43;;;11.93;;
36185;SDS011;22228;53.222;7.446;2023-02-07T16:37:36;13.97;;;12.07;;
36185;SDS011;22228;53.222;7.446;2023-02-07T16:39:56;15.77;;;12.23;;
36185;SDS011;22228;53.222;7.446;2023-02-07T16:42:16;16.80;;;12.60;;
36185;SDS011;22228;53.222;7.446;2023-02-07T16:44:37;14.20;;;11.73;;
36185;SDS011;22228;53.222;7.446;2023-02-07T16:46:58;14.97;;;12.77;;
36185;SDS011;22228;53.222;7.446;2023-02-07T16:49:19;14.83;;;11.87;;
36185;SDS011;22228;53.222;7.446;2023-02-07T16:51:41;15.87;;;12.20;;
36185;SDS011;22228;53.222;7.446;2023-02-07T16:54:02;15.37;;;12.60;;
36185;SDS011;22228;53.222;7.446;2023-02-07T16:56:23;13.83;;;11.73;;
36185;SDS011;22228;53.222;7.446;2023-02-07T16:58:45;15.30;;;12.33;;
36185;SDS011;22228;53.222;7.446;2023-02-07T17:01:06;17.93;;;13.57;;
36185;SDS011;22228;53.222;7.446;2023-02-07T17:03:26;16.67;;;13.17;;
36185;SDS011;22228;53.222;7.446;2023-02-07T17:05:47;17.60;;;13.43;;
36185;SDS011;22228;53.222;7.446;2023-02-07T17:08:10;16.17;;;12.93;;
36185;SDS011;22228;53.222;7.446;2023-02-07T17:10:33;17.00;;;13.53;;
36185;SDS011;22228;53.222;7.446;2023-02-07T17:12:54;17.33;;;13.10;;